sensor_id;sensor_type;location;lat;lon;timestamp;pressure;altitude;pressure_sealevel;temperature;humidity
64551;BME280;50945;44.472;-123.352;2022-09-09T00:01:25;100371.34;;;27.38;21.10
64551;BME280;50945;44.472;-123.352;2022-09-09T00:04:16;100363.94;;;27.18;19.38
64551;BME280;50945;44.472;-123.352;2022-09-09T00:09:17;100355.38;;;27.04;21.48
64551;BME280;50945;44.472;-123.352;2022-09-09T00:20:21;100344.50;;;26.68;21.46
64551;BME280;50945;44.472;-123.352;2022-09-09T00:31:45;100343.38;;;26.29;21.22
64551;BME280;50945;44.472;-123.352;2022-09-09T00:34:21;100337.19;;;26.27;21.08
64551;BME280;50945;44.472;-123.352;2022-09-09T00:36:51;100329.94;;;26.26;21.37
64551;BME280;50945;44.472;-123.352;2022-09-09T00:39:39;100337.22;;;26.22;17.96
64551;BME280;50945;44.472;-123.352;2022-09-09T00:42:18;100326.34;;;26.15;20.46
64551;BME280;50945;44.472;-123.352;2022-09-09T00:47:50;100323.94;;;25.98;17.91
64551;BME280;50945;44.472;-123.352;2022-09-09T00:58:22;100317.00;;;25.80;20.24
64551;BME280;50945;44.472;-123.352;2022-09-09T01:01:15;100308.91;;;25.74;18.23
64551;BME280;50945;44.472;-123.352;2022-09-09T01:03:55;100311.72;;;25.69;17.93
64551;BME280;50945;44.472;-123.352;2022-09-09T01:06:32;100304.47;;;25.63;18.95
64551;BME280;50945;44.472;-123.352;2022-09-09T01:11:49;100299.19;;;25.51;18.62
64551;BME280;50945;44.472;-123.352;2022-09-09T01:27:42;100285.03;;;25.21;20.73
64551;BME280;50945;44.472;-123.352;2022-09-09T01:30:11;100283.63;;;25.19;21.39
64551;BME280;50945;44.472;-123.352;2022-09-09T01:32:50;100288.94;;;25.15;20.58
64551;BME280;50945;44.472;-123.352;2022-09-09T01:38:03;100273.31;;;25.04;21.33
64551;BME280;50945;44.472;-123.352;2022-09-09T01:40:29;100276.13;;;24.99;21.35
64551;BME280;50945;44.472;-123.352;2022-09-09T01:42:56;100276.13;;;24.94;21.31
64551;BME280;50945;44.472;-123.352;2022-09-09T01:45:23;100270.81;;;24.87;21.71
64551;BME280;50945;44.472;-123.352;2022-09-09T01:47:54;100262.75;;;24.80;21.64
64551;BME280;50945;44.472;-123.352;2022-09-09T01:50:22;100257.72;;;24.77;21.64
64551;BME280;50945;44.472;-123.352;2022-09-09T01:52:52;100249.34;;;24.72;21.72
64551;BME280;50945;44.472;-123.352;2022-09-09T01:55:30;100249.34;;;24.67;20.73
64551;BME280;50945;44.472;-123.352;2022-09-09T01:58:12;100248.25;;;24.63;21.89
64551;BME280;50945;44.472;-123.352;2022-09-09T02:00:55;100254.38;;;24.55;21.97
64551;BME280;50945;44.472;-123.352;2022-09-09T02:03:30;100256.59;;;24.47;22.08
64551;BME280;50945;44.472;-123.352;2022-09-09T02:08:50;100259.97;;;24.29;23.00
64551;BME280;50945;44.472;-123.352;2022-09-09T02:11:20;100256.31;;;24.18;23.29
64551;BME280;50945;44.472;-123.352;2022-09-09T02:13:49;100262.44;;;24.10;23.82
64551;BME280;50945;44.472;-123.352;2022-09-09T02:21:23;100262.88;;;23.71;25.51
64551;BME280;50945;44.472;-123.352;2022-09-09T02:23:51;100258.66;;;23.58;26.17
64551;BME280;50945;44.472;-123.352;2022-09-09T02:26:20;100254.44;;;23.45;26.52
64551;BME280;50945;44.472;-123.352;2022-09-09T02:28:50;100255.75;;;23.32;27.21
64551;BME280;50945;44.472;-123.352;2022-09-09T02:31:19;100251.78;;;23.18;27.73
64551;BME280;50945;44.472;-123.352;2022-09-09T02:33:59;100255.31;;;23.03;28.93
64551;BME280;50945;44.472;-123.352;2022-09-09T02:36:29;100253.00;;;22.90;28.77
64551;BME280;50945;44.472;-123.352;2022-09-09T02:38:57;100250.69;;;22.76;29.52
64551;BME280;50945;44.472;-123.352;2022-09-09T02:41:28;100248.97;;;22.65;30.08
64551;BME280;50945;44.472;-123.352;2022-09-09T02:43:57;100244.41;;;22.54;30.30
64551;BME280;50945;44.472;-123.352;2022-09-09T02:52:38;100252.13;;;22.14;33.15
64551;BME280;50945;44.472;-123.352;2022-09-09T02:55:38;100243.94;;;22.02;33.00
64551;BME280;50945;44.472;-123.352;2022-09-09T02:58:08;100245.53;;;21.93;31.89
64551;BME280;50945;44.472;-123.352;2022-09-09T03:00:38;100243.50;;;21.83;32.26
64551;BME280;50945;44.472;-123.352;2022-09-09T03:03:07;100242.84;;;21.76;32.56
64551;BME280;50945;44.472;-123.352;2022-09-09T03:05:35;100243.88;;;21.70;32.51
64551;BME280;50945;44.472;-123.352;2022-09-09T03:08:02;100249.66;;;21.63;32.63
64551;BME280;50945;44.472;-123.352;2022-09-09T03:10:29;100254.56;;;21.56;32.96
64551;BME280;50945;44.472;-123.352;2022-09-09T03:12:55;100253.09;;;21.49;33.33
64551;BME280;50945;44.472;-123.352;2022-09-09T03:15:22;100253.50;;;21.40;33.54
64551;BME280;50945;44.472;-123.352;2022-09-09T03:17:49;100252.28;;;21.31;33.55
64551;BME280;50945;44.472;-123.352;2022-09-09T03:20:15;100252.69;;;21.18;33.97
64551;BME280;50945;44.472;-123.352;2022-09-09T03:22:41;100266.69;;;21.06;34.29
64551;BME280;50945;44.472;-123.352;2022-09-09T03:25:10;100269.00;;;20.92;34.86
64551;BME280;50945;44.472;-123.352;2022-09-09T03:27:38;100263.81;;;20.79;34.71
64551;BME280;50945;44.472;-123.352;2022-09-09T03:30:05;100268.38;;;20.68;35.13
64551;BME280;50945;44.472;-123.352;2022-09-09T03:32:31;100269.38;;;20.62;35.14
64551;BME280;50945;44.472;-123.352;2022-09-09T03:34:58;100271.94;;;20.51;35.63
64551;BME280;50945;44.472;-123.352;2022-09-09T03:37:24;100273.47;;;20.42;35.79
64551;BME280;50945;44.472;-123.352;2022-09-09T03:39:51;100263.97;;;20.38;35.72
64551;BME280;50945;44.472;-123.352;2022-09-09T03:42:20;100280.28;;;20.35;35.68
64551;BME280;50945;44.472;-123.352;2022-09-09T03:44:48;100275.00;;;20.33;35.97
64551;BME280;50945;44.472;-123.352;2022-09-09T03:47:17;100270.41;;;20.27;35.90
64551;BME280;50945;44.472;-123.352;2022-09-09T03:49:44;100278.69;;;20.22;35.98
64551;BME280;50945;44.472;-123.352;2022-09-09T03:52:11;100290.53;;;20.17;36.13
64551;BME280;50945;44.472;-123.352;2022-09-09T03:54:38;100285.97;;;20.11;36.08
64551;BME280;50945;44.472;-123.352;2022-09-09T03:57:05;100285.22;;;19.99;36.57
64551;BME280;50945;44.472;-123.352;2022-09-09T03:59:32;100289.09;;;19.86;36.68
64551;BME280;50945;44.472;-123.352;2022-09-09T04:01:58;100290.34;;;19.78;36.68
64551;BME280;50945;44.472;-123.352;2022-09-09T04:04:26;100287.59;;;19.66;37.27
64551;BME280;50945;44.472;-123.352;2022-09-09T04:06:53;100289.25;;;19.38;37.55
64551;BME280;50945;44.472;-123.352;2022-09-09T04:09:20;100286.97;;;19.24;37.61
64551;BME280;50945;44.472;-123.352;2022-09-09T04:11:46;100289.38;;;19.20;37.63
64551;BME280;50945;44.472;-123.352;2022-09-09T04:14:12;100291.44;;;19.13;37.58
64551;BME280;50945;44.472;-123.352;2022-09-09T04:16:38;100296.28;;;19.06;40.27
64551;BME280;50945;44.472;-123.352;2022-09-09T04:19:05;100297.22;;;19.11;37.22
64551;BME280;50945;44.472;-123.352;2022-09-09T04:21:33;100292.41;;;19.18;37.28
64551;BME280;50945;44.472;-123.352;2022-09-09T04:23:59;100287.47;;;19.21;37.21
64551;BME280;50945;44.472;-123.352;2022-09-09T04:26:25;100284.94;;;19.19;39.51
64551;BME280;50945;44.472;-123.352;2022-09-09T04:28:52;100288.91;;;19.23;37.07
64551;BME280;50945;44.472;-123.352;2022-09-09T04:31:20;100281.44;;;19.24;37.04
64551;BME280;50945;44.472;-123.352;2022-09-09T04:33:49;100282.66;;;19.28;37.03
64551;BME280;50945;44.472;-123.352;2022-09-09T04:36:17;100279.38;;;19.31;37.06
64551;BME280;50945;44.472;-123.352;2022-09-09T04:38:45;100276.13;;;19.34;37.16
64551;BME280;50945;44.472;-123.352;2022-09-09T04:41:12;100279.88;;;19.28;37.56
64551;BME280;50945;44.472;-123.352;2022-09-09T04:43:39;100277.72;;;19.18;37.54
64551;BME280;50945;44.472;-123.352;2022-09-09T04:46:06;100273.41;;;19.10;37.82
64551;BME280;50945;44.472;-123.352;2022-09-09T04:48:33;100274.25;;;18.99;38.14
64551;BME280;50945;44.472;-123.352;2022-09-09T04:51:02;100268.25;;;18.90;38.43
64551;BME280;50945;44.472;-123.352;2022-09-09T04:53:30;100269.28;;;18.77;38.65
64551;BME280;50945;44.472;-123.352;2022-09-09T04:56:02;100264.25;;;18.62;41.19
64551;BME280;50945;44.472;-123.352;2022-09-09T04:58:30;100265.56;;;18.48;39.17
64551;BME280;50945;44.472;-123.352;2022-09-09T05:01:17;100256.63;;;18.34;40.76
64551;BME280;50945;44.472;-123.352;2022-09-09T05:03:45;100253.75;;;18.29;39.38
64551;BME280;50945;44.472;-123.352;2022-09-09T05:06:17;100252.31;;;18.27;39.89
64551;BME280;50945;44.472;-123.352;2022-09-09T05:08:44;100253.59;;;18.24;39.86
64551;BME280;50945;44.472;-123.352;2022-09-09T05:11:24;100259.13;;;18.24;41.72
64551;BME280;50945;44.472;-123.352;2022-09-09T05:13:52;100250.00;;;18.23;39.97
64551;BME280;50945;44.472;-123.352;2022-09-09T05:16:20;100254.94;;;18.21;40.04
64551;BME280;50945;44.472;-123.352;2022-09-09T05:18:47;100251.81;;;18.18;40.33
64551;BME280;50945;44.472;-123.352;2022-09-09T05:21:16;100246.75;;;18.15;40.62
64551;BME280;50945;44.472;-123.352;2022-09-09T05:23:42;100252.59;;;18.07;40.84
64551;BME280;50945;44.472;-123.352;2022-09-09T05:26:15;100240.66;;;17.94;42.35
64551;BME280;50945;44.472;-123.352;2022-09-09T05:28:42;100249.22;;;17.93;40.98
64551;BME280;50945;44.472;-123.352;2022-09-09T05:31:09;100245.38;;;17.94;41.15
64551;BME280;50945;44.472;-123.352;2022-09-09T05:33:40;100245.72;;;17.97;41.44
64551;BME280;50945;44.472;-123.352;2022-09-09T05:36:11;100241.31;;;17.96;41.13
64551;BME280;50945;44.472;-123.352;2022-09-09T05:38:39;100238.31;;;17.98;41.21
64551;BME280;50945;44.472;-123.352;2022-09-09T05:41:07;100234.56;;;18.04;41.46
64551;BME280;50945;44.472;-123.352;2022-09-09T05:43:33;100232.78;;;18.10;41.36
64551;BME280;50945;44.472;-123.352;2022-09-09T05:46:11;100238.22;;;18.16;41.30
64551;BME280;50945;44.472;-123.352;2022-09-09T05:48:39;100236.66;;;18.20;40.96
64551;BME280;50945;44.472;-123.352;2022-09-09T05:51:10;100238.34;;;18.21;41.00
64551;BME280;50945;44.472;-123.352;2022-09-09T05:53:38;100236.78;;;18.26;41.37
64551;BME280;50945;44.472;-123.352;2022-09-09T05:56:07;100237.38;;;18.28;41.40
64551;BME280;50945;44.472;-123.352;2022-09-09T05:58:37;100234.84;;;18.26;41.90
64551;BME280;50945;44.472;-123.352;2022-09-09T06:01:09;100230.63;;;18.23;41.90
64551;BME280;50945;44.472;-123.352;2022-09-09T06:03:38;100227.03;;;18.23;41.53
64551;BME280;50945;44.472;-123.352;2022-09-09T06:06:07;100227.88;;;18.23;41.69
64551;BME280;50945;44.472;-123.352;2022-09-09T06:08:35;100224.28;;;18.23;42.02
64551;BME280;50945;44.472;-123.352;2022-09-09T06:11:13;100227.28;;;18.21;41.63
64551;BME280;50945;44.472;-123.352;2022-09-09T06:13:40;100222.22;;;18.18;41.88
64551;BME280;50945;44.472;-123.352;2022-09-09T06:16:11;100207.78;;;18.16;42.30
64551;BME280;50945;44.472;-123.352;2022-09-09T06:18:39;100214.16;;;18.17;41.84
64551;BME280;50945;44.472;-123.352;2022-09-09T06:21:08;100209.09;;;18.14;42.05
64551;BME280;50945;44.472;-123.352;2022-09-09T06:23:35;100211.00;;;18.13;42.19
64551;BME280;50945;44.472;-123.352;2022-09-09T06:26:09;100215.72;;;18.13;42.10
64551;BME280;50945;44.472;-123.352;2022-09-09T06:28:36;100225.09;;;18.12;42.00
64551;BME280;50945;44.472;-123.352;2022-09-09T06:31:07;100222.09;;;18.13;42.08
64551;BME280;50945;44.472;-123.352;2022-09-09T06:33:39;100214.63;;;18.14;41.76
64551;BME280;50945;44.472;-123.352;2022-09-09T06:36:14;100214.88;;;18.12;42.08
64551;BME280;50945;44.472;-123.352;2022-09-09T06:38:42;100217.00;;;18.10;42.21
64551;BME280;50945;44.472;-123.352;2022-09-09T06:41:09;100210.28;;;18.06;42.11
64551;BME280;50945;44.472;-123.352;2022-09-09T06:43:36;100206.31;;;18.02;42.08
64551;BME280;50945;44.472;-123.352;2022-09-09T06:48:34;100212.31;;;17.99;42.10
64551;BME280;50945;44.472;-123.352;2022-09-09T06:51:05;100208.13;;;17.96;42.20
64551;BME280;50945;44.472;-123.352;2022-09-09T06:53:33;100205.81;;;17.93;42.49
64551;BME280;50945;44.472;-123.352;2022-09-09T06:56:02;100211.81;;;17.90;41.95
64551;BME280;50945;44.472;-123.352;2022-09-09T06:58:29;100219.50;;;17.88;42.31
64551;BME280;50945;44.472;-123.352;2022-09-09T07:01:05;100213.56;;;17.84;42.93
64551;BME280;50945;44.472;-123.352;2022-09-09T07:03:32;100212.59;;;17.79;42.71
64551;BME280;50945;44.472;-123.352;2022-09-09T07:05:59;100214.34;;;17.61;43.17
64551;BME280;50945;44.472;-123.352;2022-09-09T07:08:26;100216.69;;;17.46;43.51
64551;BME280;50945;44.472;-123.352;2022-09-09T07:10:54;100211.34;;;17.33;43.68
64551;BME280;50945;44.472;-123.352;2022-09-09T07:13:25;100208.06;;;17.24;43.97
64551;BME280;50945;44.472;-123.352;2022-09-09T07:15:54;100206.91;;;17.13;44.18
64551;BME280;50945;44.472;-123.352;2022-09-09T07:18:20;100208.91;;;17.06;43.70
64551;BME280;50945;44.472;-123.352;2022-09-09T07:20:56;100206.00;;;17.01;44.34
64551;BME280;50945;44.472;-123.352;2022-09-09T07:23:23;100200.94;;;16.98;43.94
64551;BME280;50945;44.472;-123.352;2022-09-09T07:25:49;100193.97;;;16.95;43.91
64551;BME280;50945;44.472;-123.352;2022-09-09T07:28:17;100195.88;;;16.95;43.86
64551;BME280;50945;44.472;-123.352;2022-09-09T07:30:43;100195.03;;;16.94;43.70
64551;BME280;50945;44.472;-123.352;2022-09-09T07:33:10;100186.59;;;16.89;44.68
64551;BME280;50945;44.472;-123.352;2022-09-09T07:35:36;100183.69;;;16.84;43.96
64551;BME280;50945;44.472;-123.352;2022-09-09T07:38:05;100178.22;;;16.77;44.57
64551;BME280;50945;44.472;-123.352;2022-09-09T07:40:33;100178.06;;;16.72;44.38
64551;BME280;50945;44.472;-123.352;2022-09-09T07:43:00;100176.38;;;16.71;44.01
64551;BME280;50945;44.472;-123.352;2022-09-09T07:45:27;100179.75;;;16.73;43.88
64551;BME280;50945;44.472;-123.352;2022-09-09T07:47:58;100169.31;;;16.75;43.66
64551;BME280;50945;44.472;-123.352;2022-09-09T07:50:24;100164.66;;;16.76;43.48
64551;BME280;50945;44.472;-123.352;2022-09-09T07:52:51;100161.91;;;16.76;43.74
64551;BME280;50945;44.472;-123.352;2022-09-09T07:55:20;100159.44;;;16.67;44.34
64551;BME280;50945;44.472;-123.352;2022-09-09T07:57:46;100155.75;;;16.55;44.53
64551;BME280;50945;44.472;-123.352;2022-09-09T08:00:13;100149.69;;;16.46;44.86
64551;BME280;50945;44.472;-123.352;2022-09-09T08:02:40;100146.59;;;16.36;44.87
64551;BME280;50945;44.472;-123.352;2022-09-09T08:05:06;100150.94;;;16.25;47.10
64551;BME280;50945;44.472;-123.352;2022-09-09T08:07:33;100151.81;;;16.26;44.59
64551;BME280;50945;44.472;-123.352;2022-09-09T08:10:00;100143.75;;;16.24;44.38
64551;BME280;50945;44.472;-123.352;2022-09-09T08:12:26;100140.56;;;16.27;44.06
64551;BME280;50945;44.472;-123.352;2022-09-09T08:14:53;100139.47;;;16.28;43.73
64551;BME280;50945;44.472;-123.352;2022-09-09T08:17:19;100136.94;;;16.27;44.65
64551;BME280;50945;44.472;-123.352;2022-09-09T08:19:45;100132.69;;;16.31;43.77
64551;BME280;50945;44.472;-123.352;2022-09-09T08:22:11;100131.81;;;16.30;43.41
64551;BME280;50945;44.472;-123.352;2022-09-09T08:24:38;100136.72;;;16.28;43.62
64551;BME280;50945;44.472;-123.352;2022-09-09T08:27:05;100122.16;;;16.21;44.21
64551;BME280;50945;44.472;-123.352;2022-09-09T08:29:32;100117.56;;;16.15;44.26
64551;BME280;50945;44.472;-123.352;2022-09-09T08:31:58;100118.00;;;16.12;43.87
64551;BME280;50945;44.472;-123.352;2022-09-09T08:34:26;100111.00;;;16.09;43.83
64551;BME280;50945;44.472;-123.352;2022-09-09T08:36:53;100112.53;;;16.05;43.99
64551;BME280;50945;44.472;-123.352;2022-09-09T08:39:21;100111.31;;;16.01;44.05
64551;BME280;50945;44.472;-123.352;2022-09-09T08:50:25;100105.69;;;15.89;44.80
64551;BME280;50945;44.472;-123.352;2022-09-09T08:58:20;100084.09;;;15.86;44.62
64551;BME280;50945;44.472;-123.352;2022-09-09T09:01:17;100086.00;;;15.86;45.25
64551;BME280;50945;44.472;-123.352;2022-09-09T09:12:12;100096.44;;;15.84;44.82
64551;BME280;50945;44.472;-123.352;2022-09-09T09:14:40;100087.28;;;15.58;48.23
64551;BME280;50945;44.472;-123.352;2022-09-09T09:19:43;100087.31;;;15.26;45.68
64551;BME280;50945;44.472;-123.352;2022-09-09T09:22:49;100088.81;;;15.22;46.80
64551;BME280;50945;44.472;-123.352;2022-09-09T09:25:20;100079.31;;;15.18;45.49
64551;BME280;50945;44.472;-123.352;2022-09-09T09:28:09;100075.53;;;15.12;46.11
64551;BME280;50945;44.472;-123.352;2022-09-09T09:30:42;100077.03;;;15.08;45.63
64551;BME280;50945;44.472;-123.352;2022-09-09T09:36:12;100069.66;;;15.02;46.29
64551;BME280;50945;44.472;-123.352;2022-09-09T09:38:55;100071.19;;;14.98;46.92
64551;BME280;50945;44.472;-123.352;2022-09-09T09:41:39;100061.66;;;14.94;46.45
64551;BME280;50945;44.472;-123.352;2022-09-09T09:44:26;100061.44;;;14.95;47.25
64551;BME280;50945;44.472;-123.352;2022-09-09T09:46:53;100062.31;;;14.96;45.89
64551;BME280;50945;44.472;-123.352;2022-09-09T09:49:31;100058.47;;;14.97;45.68
64551;BME280;50945;44.472;-123.352;2022-09-09T09:52:05;100052.13;;;14.96;46.71
64551;BME280;50945;44.472;-123.352;2022-09-09T09:54:38;100061.31;;;14.83;46.89
64551;BME280;50945;44.472;-123.352;2022-09-09T09:57:28;100062.59;;;14.74;49.24
64551;BME280;50945;44.472;-123.352;2022-09-09T10:00:25;100051.66;;;14.68;49.41
64551;BME280;50945;44.472;-123.352;2022-09-09T10:02:51;100047.03;;;14.61;46.83
64551;BME280;50945;44.472;-123.352;2022-09-09T10:05:29;100047.44;;;14.58;47.37
64551;BME280;50945;44.472;-123.352;2022-09-09T10:10:56;100048.31;;;14.52;49.04
64551;BME280;50945;44.472;-123.352;2022-09-09T10:16:33;100042.00;;;14.45;48.21
64551;BME280;50945;44.472;-123.352;2022-09-09T10:27:29;100037.44;;;14.71;46.51
64551;BME280;50945;44.472;-123.352;2022-09-09T10:30:10;100029.78;;;14.79;46.45
64551;BME280;50945;44.472;-123.352;2022-09-09T10:51:29;100028.88;;;14.92;46.14
64551;BME280;50945;44.472;-123.352;2022-09-09T10:56:53;100021.06;;;14.89;45.99
64551;BME280;50945;44.472;-123.352;2022-09-09T10:59:30;100013.25;;;14.86;46.45
64551;BME280;50945;44.472;-123.352;2022-09-09T11:02:15;100011.53;;;14.85;46.43
64551;BME280;50945;44.472;-123.352;2022-09-09T11:04:49;100012.63;;;14.84;46.50
64551;BME280;50945;44.472;-123.352;2022-09-09T11:07:44;100018.34;;;14.82;46.96
64551;BME280;50945;44.472;-123.352;2022-09-09T11:10:40;100009.06;;;14.77;47.60
64551;BME280;50945;44.472;-123.352;2022-09-09T11:18:45;99998.34;;;14.62;46.47
64551;BME280;50945;44.472;-123.352;2022-09-09T11:21:22;100000.47;;;14.60;46.61
64551;BME280;50945;44.472;-123.352;2022-09-09T11:23:59;99998.59;;;14.60;46.65
64551;BME280;50945;44.472;-123.352;2022-09-09T11:26:35;99990.97;;;14.62;46.88
64551;BME280;50945;44.472;-123.352;2022-09-09T11:41:02;99983.69;;;14.75;46.77
64551;BME280;50945;44.472;-123.352;2022-09-09T11:43:32;99983.91;;;14.73;46.53
64551;BME280;50945;44.472;-123.352;2022-09-09T11:46:03;99984.34;;;14.70;46.83
64551;BME280;50945;44.472;-123.352;2022-09-09T11:48:39;99985.84;;;14.66;47.00
64551;BME280;50945;44.472;-123.352;2022-09-09T11:51:11;99979.34;;;14.60;46.67
64551;BME280;50945;44.472;-123.352;2022-09-09T11:53:55;99971.69;;;14.56;47.88
64551;BME280;50945;44.472;-123.352;2022-09-09T11:56:43;99974.25;;;14.51;47.41
64551;BME280;50945;44.472;-123.352;2022-09-09T11:59:28;99979.78;;;14.44;48.14
64551;BME280;50945;44.472;-123.352;2022-09-09T12:01:59;99980.25;;;14.41;47.38
64551;BME280;50945;44.472;-123.352;2022-09-09T12:04:31;99983.22;;;14.39;47.42
64551;BME280;50945;44.472;-123.352;2022-09-09T12:07:02;99972.44;;;14.38;47.79
64551;BME280;50945;44.472;-123.352;2022-09-09T12:09:48;99967.97;;;14.37;49.04
64551;BME280;50945;44.472;-123.352;2022-09-09T12:12:35;99976.44;;;14.35;48.10
64551;BME280;50945;44.472;-123.352;2022-09-09T12:17:45;99965.50;;;14.29;48.05
64551;BME280;50945;44.472;-123.352;2022-09-09T12:20:16;99963.41;;;14.24;48.36
64551;BME280;50945;44.472;-123.352;2022-09-09T12:23:01;99964.91;;;14.20;48.94
64551;BME280;50945;44.472;-123.352;2022-09-09T12:33:34;99953.06;;;13.61;49.98
64551;BME280;50945;44.472;-123.352;2022-09-09T12:36:02;99950.53;;;13.53;49.84
64551;BME280;50945;44.472;-123.352;2022-09-09T12:38:36;99941.25;;;13.47;49.83
64551;BME280;50945;44.472;-123.352;2022-09-09T12:41:02;99945.03;;;13.39;53.09
64551;BME280;50945;44.472;-123.352;2022-09-09T12:43:28;99955.59;;;13.36;53.15
64551;BME280;50945;44.472;-123.352;2022-09-09T12:45:59;99943.38;;;13.38;49.88
64551;BME280;50945;44.472;-123.352;2022-09-09T12:48:44;99948.66;;;13.40;50.98
64551;BME280;50945;44.472;-123.352;2022-09-09T12:51:30;99938.28;;;13.42;51.22
64551;BME280;50945;44.472;-123.352;2022-09-09T12:53:57;99940.84;;;13.43;49.69
64551;BME280;50945;44.472;-123.352;2022-09-09T12:56:26;99932.38;;;13.45;49.84
64551;BME280;50945;44.472;-123.352;2022-09-09T12:58:56;99925.19;;;13.44;49.75
64551;BME280;50945;44.472;-123.352;2022-09-09T13:01:31;99925.41;;;13.42;50.13
64551;BME280;50945;44.472;-123.352;2022-09-09T13:03:59;99926.69;;;13.40;50.13
64551;BME280;50945;44.472;-123.352;2022-09-09T13:06:28;99925.81;;;13.39;50.36
64551;BME280;50945;44.472;-123.352;2022-09-09T13:08:58;99913.38;;;13.37;50.23
64551;BME280;50945;44.472;-123.352;2022-09-09T13:11:31;99910.22;;;13.33;50.12
64551;BME280;50945;44.472;-123.352;2022-09-09T13:14:01;99925.63;;;13.34;50.04
64551;BME280;50945;44.472;-123.352;2022-09-09T13:16:34;99923.31;;;13.31;50.07
64551;BME280;50945;44.472;-123.352;2022-09-09T13:19:21;99923.91;;;13.26;53.63
64551;BME280;50945;44.472;-123.352;2022-09-09T13:21:47;99918.44;;;13.20;50.72
64551;BME280;50945;44.472;-123.352;2022-09-09T13:24:43;99918.66;;;13.11;53.96
64551;BME280;50945;44.472;-123.352;2022-09-09T13:27:57;99917.59;;;12.99;53.80
64551;BME280;50945;44.472;-123.352;2022-09-09T13:30:32;99914.03;;;12.92;51.32
64551;BME280;50945;44.472;-123.352;2022-09-09T13:33:04;99914.84;;;12.86;51.12
64551;BME280;50945;44.472;-123.352;2022-09-09T13:35:32;99914.44;;;12.82;51.36
64551;BME280;50945;44.472;-123.352;2022-09-09T13:38:06;99905.16;;;12.83;51.80
64551;BME280;50945;44.472;-123.352;2022-09-09T13:40:33;99916.97;;;12.84;51.14
64551;BME280;50945;44.472;-123.352;2022-09-09T13:42:59;99918.88;;;12.83;56.14
64551;BME280;50945;44.472;-123.352;2022-09-09T13:45:27;99917.16;;;12.82;51.67
64551;BME280;50945;44.472;-123.352;2022-09-09T13:47:55;99916.34;;;12.82;52.01
64551;BME280;50945;44.472;-123.352;2022-09-09T13:50:27;99904.53;;;12.81;51.72
64551;BME280;50945;44.472;-123.352;2022-09-09T13:52:56;99908.94;;;12.82;52.07
64551;BME280;50945;44.472;-123.352;2022-09-09T13:55:29;99908.72;;;12.77;52.26
64551;BME280;50945;44.472;-123.352;2022-09-09T13:58:00;99909.16;;;12.74;51.87
64551;BME280;50945;44.472;-123.352;2022-09-09T14:00:30;99911.47;;;12.77;51.85
64551;BME280;50945;44.472;-123.352;2022-09-09T14:02:57;99908.53;;;12.79;52.00
64551;BME280;50945;44.472;-123.352;2022-09-09T14:05:26;99905.78;;;12.79;52.21
64551;BME280;50945;44.472;-123.352;2022-09-09T14:07:53;99907.47;;;12.80;52.30
64551;BME280;50945;44.472;-123.352;2022-09-09T14:10:20;99905.56;;;12.80;52.11
64551;BME280;50945;44.472;-123.352;2022-09-09T14:12:47;99901.16;;;12.79;51.94
64551;BME280;50945;44.472;-123.352;2022-09-09T14:15:13;99898.84;;;12.83;52.28
64551;BME280;50945;44.472;-123.352;2022-09-09T14:17:40;99912.09;;;12.86;52.13
64551;BME280;50945;44.472;-123.352;2022-09-09T14:20:07;99901.56;;;12.89;52.37
64551;BME280;50945;44.472;-123.352;2022-09-09T14:22:34;99898.41;;;12.92;52.45
64551;BME280;50945;44.472;-123.352;2022-09-09T14:25:01;99896.91;;;12.97;52.56
64551;BME280;50945;44.472;-123.352;2022-09-09T14:27:28;99894.59;;;13.00;52.45
64551;BME280;50945;44.472;-123.352;2022-09-09T14:29:54;99893.97;;;13.05;51.91
64551;BME280;50945;44.472;-123.352;2022-09-09T14:32:21;99898.59;;;13.11;52.45
64551;BME280;50945;44.472;-123.352;2022-09-09T14:34:47;99894.38;;;13.15;52.54
64551;BME280;50945;44.472;-123.352;2022-09-09T14:37:17;99888.25;;;13.20;52.18
64551;BME280;50945;44.472;-123.352;2022-09-09T14:39:44;99894.13;;;13.23;52.43
64551;BME280;50945;44.472;-123.352;2022-09-09T14:42:13;99897.09;;;13.28;52.41
64551;BME280;50945;44.472;-123.352;2022-09-09T14:44:39;99892.47;;;13.29;52.74
64551;BME280;50945;44.472;-123.352;2022-09-09T14:47:07;99895.22;;;13.29;52.73
64551;BME280;50945;44.472;-123.352;2022-09-09T14:49:36;99893.75;;;13.33;52.71
64551;BME280;50945;44.472;-123.352;2022-09-09T14:52:03;99898.16;;;13.41;55.64
64551;BME280;50945;44.472;-123.352;2022-09-09T14:54:29;99897.53;;;13.52;52.13
64551;BME280;50945;44.472;-123.352;2022-09-09T14:56:55;99907.22;;;13.61;52.52
64551;BME280;50945;44.472;-123.352;2022-09-09T14:59:22;99906.13;;;13.62;56.36
64551;BME280;50945;44.472;-123.352;2022-09-09T15:01:48;99890.47;;;13.69;52.09
64551;BME280;50945;44.472;-123.352;2022-09-09T15:04:14;99889.41;;;13.77;51.77
64551;BME280;50945;44.472;-123.352;2022-09-09T15:06:42;99889.34;;;13.91;51.65
64551;BME280;50945;44.472;-123.352;2022-09-09T15:09:12;99884.63;;;14.04;51.75
64551;BME280;50945;44.472;-123.352;2022-09-09T15:11:39;99890.06;;;14.18;51.42
64551;BME280;50945;44.472;-123.352;2022-09-09T15:14:06;99880.91;;;14.31;54.60
64551;BME280;50945;44.472;-123.352;2022-09-09T15:16:33;99889.69;;;14.46;51.43
64551;BME280;50945;44.472;-123.352;2022-09-09T15:19:00;99881.97;;;14.61;51.27
64551;BME280;50945;44.472;-123.352;2022-09-09T15:21:29;99889.06;;;14.76;51.06